createdAt,value
2022-09-12T00:00:52.151Z,14.50
2022-09-12T00:03:19.961Z,14.30
2022-09-12T00:05:48.730Z,14.40
2022-09-12T00:08:16.450Z,14.40
2022-09-12T00:10:45.593Z,14.40
2022-09-12T00:13:16.087Z,14.40
2022-09-12T00:15:45.353Z,14.50
2022-09-12T00:18:16.042Z,14.50
2022-09-12T00:20:44.778Z,14.30
2022-09-12T00:23:12.830Z,14.40
2022-09-12T00:25:44.502Z,14.20
2022-09-12T00:28:14.938Z,14.10
2022-09-12T00:30:43.690Z,14.10
2022-09-12T00:33:12.071Z,14.20
2022-09-12T00:35:44.351Z,14.10
2022-09-12T00:38:12.698Z,14.10
2022-09-12T00:40:40.770Z,14.20
2022-09-12T00:43:15.632Z,14.20
2022-09-12T00:45:43.432Z,14.20
2022-09-12T00:48:21.281Z,14.10
2022-09-12T00:50:50.791Z,14.00
2022-09-12T00:53:21.531Z,14.00
2022-09-12T00:55:52.126Z,14.00
2022-09-12T00:58:24.964Z,14.00
2022-09-12T01:00:53.245Z,14.00
2022-09-12T01:03:23.962Z,14.00
2022-09-12T01:05:57.759Z,13.90
2022-09-12T01:08:26.743Z,13.90
2022-09-12T01:10:54.750Z,13.90
2022-09-12T01:13:24.147Z,14.00
2022-09-12T01:15:52.618Z,14.00
2022-09-12T01:18:25.763Z,13.90
2022-09-12T01:21:11.930Z,13.90
2022-09-12T01:24:07.084Z,13.90
2022-09-12T01:26:57.353Z,13.90
2022-09-12T01:29:45.746Z,13.90
2022-09-12T01:32:22.732Z,14.00
2022-09-12T01:34:59.958Z,13.90
2022-09-12T01:37:36.343Z,13.90
2022-09-12T01:40:15.794Z,13.90
2022-09-12T01:42:52.806Z,13.90
2022-09-12T01:45:27.396Z,13.90
2022-09-12T01:48:01.718Z,14.00
2022-09-12T01:50:33.415Z,13.90
2022-09-12T01:53:05.977Z,14.00
2022-09-12T01:55:38.362Z,13.90
2022-09-12T01:58:10.318Z,13.90
2022-09-12T02:00:48.010Z,13.80
2022-09-12T02:03:22.750Z,13.80
2022-09-12T02:05:57.345Z,13.60
2022-09-12T02:08:29.766Z,13.40
2022-09-12T02:11:02.144Z,13.40
2022-09-12T02:13:36.503Z,13.40
2022-09-12T02:16:10.602Z,13.30
2022-09-12T02:18:43.624Z,13.30
2022-09-12T02:21:11.617Z,13.30
2022-09-12T02:23:43.367Z,13.30
2022-09-12T02:26:19.887Z,13.30
2022-09-12T02:28:54.283Z,13.30
2022-09-12T02:31:26.024Z,13.30
2022-09-12T02:34:09.963Z,13.30
2022-09-12T02:36:47.261Z,13.30
2022-09-12T02:39:19.454Z,13.30
2022-09-12T02:41:47.691Z,13.30
2022-09-12T02:44:17.096Z,13.30
2022-09-12T02:46:48.777Z,13.30
2022-09-12T02:49:18.586Z,13.30
2022-09-12T02:51:47.349Z,13.30
2022-09-12T02:54:17.254Z,13.40
2022-09-12T02:56:46.575Z,13.40
2022-09-12T02:59:18.806Z,13.30
2022-09-12T03:02:00.927Z,13.30
2022-09-12T03:04:46.561Z,13.30
2022-09-12T03:07:24.423Z,13.30
2022-09-12T03:10:04.779Z,13.40
2022-09-12T03:12:44.230Z,13.40
2022-09-12T03:15:25.174Z,13.30
2022-09-12T03:18:05.303Z,13.30
2022-09-12T03:20:45.924Z,13.30
2022-09-12T03:23:25.565Z,13.30
2022-09-12T03:25:57.605Z,13.30
2022-09-12T03:28:25.701Z,13.10
2022-09-12T03:30:55.760Z,13.10
2022-09-12T03:33:25.587Z,13.10
2022-09-12T03:35:55.704Z,13.10
2022-09-12T03:38:23.413Z,13.10
2022-09-12T03:40:54.704Z,13.00
2022-09-12T03:43:23.919Z,13.10
2022-09-12T03:45:53.211Z,13.10
2022-09-12T03:48:21.053Z,13.00
2022-09-12T03:50:51.212Z,13.00
2022-09-12T03:53:20.214Z,13.00
2022-09-12T03:55:47.970Z,13.10
2022-09-12T03:58:15.736Z,13.00
2022-09-12T04:00:44.218Z,13.00
2022-09-12T04:03:11.927Z,13.10
2022-09-12T04:05:40.866Z,13.10
2022-09-12T04:08:08.551Z,13.10
2022-09-12T04:10:37.553Z,13.00
2022-09-12T04:13:05.450Z,12.90
2022-09-12T04:15:33.199Z,12.70
2022-09-12T04:18:05.564Z,12.70
2022-09-12T04:20:33.743Z,12.60
2022-09-12T04:23:01.442Z,12.60
2022-09-12T04:25:31.235Z,12.60
2022-09-12T04:28:00.260Z,12.50
2022-09-12T04:30:28.026Z,12.50
2022-09-12T04:32:55.686Z,12.40
2022-09-12T04:35:23.682Z,12.40
2022-09-12T04:37:51.578Z,12.40
2022-09-12T04:40:19.662Z,12.40
2022-09-12T04:42:47.863Z,12.30
2022-09-12T04:45:16.950Z,12.40
2022-09-12T04:47:46.366Z,12.40
2022-09-12T04:50:14.799Z,12.40
2022-09-12T04:52:42.935Z,12.40
2022-09-12T04:55:12.126Z,12.30
2022-09-12T04:57:39.964Z,12.30
2022-09-12T05:00:09.137Z,12.30
2022-09-12T05:02:38.460Z,12.30
2022-09-12T05:05:07.021Z,12.20
2022-09-12T05:07:35.422Z,12.30
2022-09-12T05:10:04.729Z,12.40
2022-09-12T05:12:32.785Z,12.30
2022-09-12T05:15:00.586Z,12.30
2022-09-12T05:17:30.146Z,12.20
2022-09-12T05:20:00.595Z,12.40
2022-09-12T05:22:28.382Z,12.40
2022-09-12T05:24:56.138Z,12.40
2022-09-12T05:27:24.036Z,12.40
2022-09-12T05:29:52.668Z,12.30
2022-09-12T05:32:20.681Z,12.30
2022-09-12T05:34:48.386Z,12.30
2022-09-12T05:37:17.514Z,12.30
2022-09-12T05:39:45.954Z,12.40
2022-09-12T05:42:14.179Z,12.40
2022-09-12T05:44:41.910Z,12.50
2022-09-12T05:47:12.486Z,12.50
2022-09-12T05:49:40.211Z,12.60
2022-09-12T05:52:08.589Z,12.60
2022-09-12T05:54:37.658Z,12.70
2022-09-12T05:57:05.673Z,12.80
2022-09-12T05:59:33.538Z,12.90
2022-09-12T06:02:01.288Z,13.00
2022-09-12T06:04:29.042Z,13.10
2022-09-12T06:06:57.015Z,13.20
2022-09-12T06:09:25.571Z,13.30
2022-09-12T06:11:55.892Z,13.40
2022-09-12T06:14:23.598Z,13.60
2022-09-12T06:16:51.336Z,13.70
2022-09-12T06:19:21.460Z,14.00
2022-09-12T06:21:49.707Z,14.70
2022-09-12T06:24:17.593Z,15.50
2022-09-12T06:26:45.566Z,16.70
2022-09-12T06:29:15.322Z,17.70
2022-09-12T06:31:46.678Z,18.80
2022-09-12T06:34:17.166Z,20.00
2022-09-12T06:36:48.691Z,20.80
2022-09-12T06:39:18.046Z,21.40
2022-09-12T06:41:46.418Z,22.00
2022-09-12T06:44:17.099Z,22.90
2022-09-12T06:46:45.371Z,23.60
2022-09-12T06:49:13.280Z,24.40
2022-09-12T06:51:41.905Z,25.10
2022-09-12T06:54:12.946Z,25.70
2022-09-12T06:56:40.726Z,26.10
2022-09-12T06:59:08.526Z,26.90
2022-09-12T07:01:37.756Z,27.20
2022-09-12T07:04:06.284Z,27.30
2022-09-12T07:06:39.018Z,27.20
2022-09-12T07:09:08.730Z,27.00
2022-09-12T07:11:38.446Z,26.20
2022-09-12T07:14:08.566Z,26.70
2022-09-12T07:16:37.796Z,26.80
2022-09-12T07:19:07.385Z,27.10
2022-09-12T07:21:39.365Z,27.80
2022-09-12T07:24:08.637Z,28.60
2022-09-12T07:26:36.438Z,29.30
2022-09-12T07:29:32.408Z,29.50
2022-09-12T07:31:54.411Z,29.90
2022-09-12T07:34:22.358Z,30.20
2022-09-12T07:36:50.229Z,29.80
2022-09-12T07:39:17.957Z,30.30
2022-09-12T07:41:45.682Z,30.70
2022-09-12T07:44:13.388Z,31.30
2022-09-12T07:46:41.142Z,31.60
2022-09-12T07:49:10.174Z,31.90
2022-09-12T07:51:37.924Z,32.20
2022-09-12T07:54:08.971Z,32.70
2022-09-12T07:56:39.242Z,33.10
2022-09-12T07:59:07.451Z,33.50
2022-09-12T08:01:35.475Z,33.90
2022-09-12T08:04:04.782Z,34.10
2022-09-12T08:06:35.866Z,34.50
2022-09-12T08:09:05.979Z,34.80
2022-09-12T08:11:33.794Z,34.80
2022-09-12T08:14:02.951Z,34.40
2022-09-12T08:16:32.025Z,34.20
2022-09-12T08:19:01.916Z,34.30
2022-09-12T08:21:31.460Z,33.80
2022-09-12T08:24:02.499Z,34.30
2022-09-12T08:26:30.964Z,34.20
2022-09-12T08:28:59.086Z,34.20
2022-09-12T08:31:28.082Z,33.80
2022-09-12T08:33:57.230Z,33.80
2022-09-12T08:36:27.572Z,34.20
2022-09-12T08:38:59.917Z,34.80
2022-09-12T08:41:31.872Z,35.20
2022-09-12T08:44:19.793Z,35.40
2022-09-12T08:47:01.850Z,35.70
2022-09-12T08:49:33.660Z,35.80
2022-09-12T08:52:13.747Z,35.50
2022-09-12T08:54:44.629Z,35.80
2022-09-12T08:57:15.786Z,36.20
2022-09-12T08:59:46.594Z,36.60
2022-09-12T09:02:34.279Z,36.80
2022-09-12T09:05:07.961Z,37.10
2022-09-12T09:07:54.666Z,37.20
2022-09-12T09:10:30.120Z,37.30
2022-09-12T09:13:09.254Z,37.70
2022-09-12T09:15:43.754Z,37.30
2022-09-12T09:18:21.027Z,37.50
2022-09-12T09:20:57.117Z,37.30
2022-09-12T09:23:28.339Z,37.50
2022-09-12T09:26:01.659Z,37.80
2022-09-12T09:28:37.542Z,37.70
2022-09-12T09:31:15.398Z,37.70
2022-09-12T09:33:43.587Z,37.60
2022-09-12T09:36:23.835Z,37.60
2022-09-12T09:39:00.680Z,37.80
2022-09-12T09:41:41.891Z,37.90
2022-09-12T09:44:11.197Z,37.70
2022-09-12T09:46:39.099Z,37.00
2022-09-12T09:49:07.869Z,37.00
2022-09-12T09:51:38.146Z,36.40
2022-09-12T09:54:16.948Z,36.30
2022-09-12T09:56:47.426Z,36.10
2022-09-12T09:59:20.443Z,36.50
2022-09-12T10:01:52.442Z,36.90
2022-09-12T10:04:23.318Z,37.30
2022-09-12T10:06:53.516Z,37.40
2022-09-12T10:09:24.765Z,37.00
2022-09-12T10:11:53.534Z,37.40
2022-09-12T10:14:33.034Z,37.10
2022-09-12T10:17:01.775Z,36.80
2022-09-12T10:19:36.446Z,36.70
2022-09-12T10:22:05.595Z,37.00
2022-09-12T10:24:36.911Z,37.20
2022-09-12T10:27:14.050Z,36.90
2022-09-12T10:29:48.421Z,36.70
2022-09-12T10:32:29.975Z,37.00
2022-09-12T10:35:02.092Z,36.80
2022-09-12T10:37:33.389Z,36.90
2022-09-12T10:40:03.811Z,36.50
2022-09-12T10:42:48.260Z,37.00
2022-09-12T10:45:22.077Z,37.10
2022-09-12T10:47:50.824Z,37.40
2022-09-12T10:50:29.310Z,37.80
2022-09-12T10:53:14.878Z,38.40
2022-09-12T10:55:51.798Z,38.40
2022-09-12T10:58:35.338Z,38.60
2022-09-12T11:01:14.110Z,38.90
2022-09-12T11:03:58.927Z,39.20
2022-09-12T11:06:36.206Z,39.60
2022-09-12T11:09:10.833Z,39.80
2022-09-12T11:11:51.406Z,40.10
2022-09-12T11:14:29.071Z,40.10
2022-09-12T11:17:09.713Z,40.30
2022-09-12T11:20:03.417Z,40.10
2022-09-12T11:22:54.442Z,40.60
2022-09-12T11:25:31.165Z,40.90
2022-09-12T11:28:22.099Z,40.70
2022-09-12T11:31:03.120Z,40.50
2022-09-12T11:33:43.083Z,40.50
2022-09-12T11:36:24.579Z,40.20
2022-09-12T11:38:55.648Z,39.60
2022-09-12T11:41:29.376Z,39.50
2022-09-12T11:44:02.030Z,39.20
2022-09-12T11:46:37.106Z,39.10
2022-09-12T11:49:17.831Z,38.80
2022-09-12T11:51:50.595Z,39.00
2022-09-12T11:54:23.908Z,38.80
2022-09-12T11:56:59.080Z,39.20
2022-09-12T11:59:33.964Z,39.20
2022-09-12T12:02:04.682Z,38.80
2022-09-12T12:04:40.992Z,37.50
2022-09-12T12:07:11.395Z,37.20
2022-09-12T12:09:47.353Z,36.00
2022-09-12T12:12:21.267Z,34.90
2022-09-12T12:14:51.891Z,33.50
2022-09-12T12:17:21.653Z,32.50
2022-09-12T12:20:05.476Z,31.70
2022-09-12T12:22:35.937Z,31.10
2022-09-12T12:25:08.489Z,30.60
2022-09-12T12:27:53.622Z,30.00
2022-09-12T12:30:51.138Z,29.50
2022-09-12T12:33:48.703Z,29.10
2022-09-12T12:36:33.823Z,28.80
2022-09-12T12:39:34.926Z,28.40
2022-09-12T12:42:03.452Z,28.10
2022-09-12T12:44:50.210Z,27.90
2022-09-12T12:47:23.507Z,27.80
2022-09-12T12:49:56.889Z,27.60
2022-09-12T12:52:29.315Z,27.40
2022-09-12T12:55:01.016Z,27.40
2022-09-12T12:57:32.805Z,27.40
2022-09-12T13:00:05.239Z,27.30
2022-09-12T13:02:36.215Z,27.20
2022-09-12T13:05:19.785Z,27.30
2022-09-12T13:07:55.927Z,27.20
2022-09-12T13:10:28.639Z,27.20
2022-09-12T13:12:58.491Z,27.20
2022-09-12T13:15:56.043Z,27.20
2022-09-12T13:18:28.490Z,27.10
2022-09-12T13:21:08.713Z,27.20
2022-09-12T13:23:37.955Z,27.10
2022-09-12T13:26:12.268Z,27.10
2022-09-12T13:28:39.992Z,27.10
2022-09-12T13:31:16.916Z,27.10
2022-09-12T13:33:48.277Z,27.00
2022-09-12T13:36:38.914Z,27.00
2022-09-12T13:39:15.852Z,26.90
2022-09-12T13:42:08.687Z,26.90
2022-09-12T13:44:43.671Z,26.90
2022-09-12T13:47:16.334Z,26.90
2022-09-12T13:49:51.060Z,27.00
2022-09-12T13:52:23.979Z,27.00
2022-09-12T13:55:00.041Z,27.00
2022-09-12T13:57:32.159Z,27.00
2022-09-12T14:00:10.270Z,26.90
2022-09-12T14:02:40.799Z,26.80
2022-09-12T14:05:13.911Z,26.70
2022-09-12T14:07:54.665Z,26.60
2022-09-12T14:10:29.971Z,26.60
2022-09-12T14:12:58.976Z,26.60
2022-09-12T14:15:34.851Z,26.60
2022-09-12T14:18:05.375Z,26.60
2022-09-12T14:20:37.998Z,26.50
2022-09-12T14:23:19.019Z,26.50
2022-09-12T14:25:49.243Z,26.50
2022-09-12T14:28:23.370Z,26.50
2022-09-12T14:31:01.487Z,26.40
2022-09-12T14:33:32.459Z,26.40
2022-09-12T14:36:11.947Z,26.40
2022-09-12T14:38:43.541Z,26.40
2022-09-12T14:41:21.590Z,26.40
2022-09-12T14:43:55.372Z,26.40
2022-09-12T14:46:28.337Z,26.40
2022-09-12T14:49:03.494Z,26.30
2022-09-12T14:51:34.662Z,26.30
2022-09-12T14:54:02.780Z,26.30
2022-09-12T14:56:54.583Z,26.30
2022-09-12T14:59:30.025Z,26.30
2022-09-12T15:02:19.851Z,26.30
2022-09-12T15:04:49.813Z,26.20
2022-09-12T15:07:26.791Z,26.20
2022-09-12T15:09:54.526Z,26.20
2022-09-12T15:12:24.003Z,26.20
2022-09-12T15:14:51.727Z,26.20
2022-09-12T15:17:19.541Z,26.10
2022-09-12T15:19:47.244Z,26.20
2022-09-12T15:22:15.300Z,26.10
2022-09-12T15:24:44.130Z,26.20
2022-09-12T15:27:13.055Z,26.10
2022-09-12T15:29:42.078Z,26.10
2022-09-12T15:32:23.031Z,26.10
2022-09-12T15:34:50.715Z,26.10
2022-09-12T15:37:18.947Z,26.00
2022-09-12T15:39:46.827Z,26.00
2022-09-12T15:42:15.360Z,25.90
2022-09-12T15:44:44.526Z,25.90
2022-09-12T15:47:14.098Z,25.90
2022-09-12T15:49:42.280Z,25.90
2022-09-12T15:52:16.183Z,25.80
2022-09-12T15:54:44.411Z,25.80
2022-09-12T15:57:12.127Z,25.80
2022-09-12T15:59:39.982Z,25.80
2022-09-12T16:02:10.666Z,25.70
2022-09-12T16:04:38.347Z,25.60
2022-09-12T16:07:06.139Z,25.60
2022-09-12T16:09:34.279Z,25.50
2022-09-12T16:12:02.275Z,25.50
2022-09-12T16:14:30.973Z,25.40
2022-09-12T16:17:07.764Z,25.40
2022-09-12T16:19:40.210Z,25.40
2022-09-12T16:22:16.157Z,25.40
2022-09-12T16:24:49.700Z,25.40
2022-09-12T16:27:17.591Z,25.30
2022-09-12T16:29:45.348Z,25.30
2022-09-12T16:32:13.191Z,25.30
2022-09-12T16:34:42.283Z,25.30
2022-09-12T16:37:10.358Z,25.30
2022-09-12T16:39:38.254Z,25.20
2022-09-12T16:42:06.181Z,25.20
2022-09-12T16:44:33.927Z,25.20
2022-09-12T16:47:01.764Z,25.10
2022-09-12T16:49:29.530Z,25.10
2022-09-12T16:51:58.839Z,25.10
2022-09-12T16:54:26.638Z,25.00
2022-09-12T16:56:54.362Z,25.00
2022-09-12T16:59:22.103Z,25.00
2022-09-12T17:01:49.973Z,24.90
2022-09-12T17:04:21.704Z,24.90
2022-09-12T17:06:51.299Z,24.70
2022-09-12T17:09:21.347Z,24.60
2022-09-12T17:11:50.103Z,24.50
2022-09-12T17:14:17.873Z,24.30
2022-09-12T17:16:51.702Z,24.10
2022-09-12T17:19:22.074Z,23.90
2022-09-12T17:21:50.101Z,23.70
2022-09-12T17:24:18.303Z,23.60
2022-09-12T17:26:47.945Z,23.50
2022-09-12T17:29:16.363Z,23.40
2022-09-12T17:31:45.271Z,23.20
2022-09-12T17:34:16.082Z,23.00
2022-09-12T17:36:45.014Z,22.80
2022-09-12T17:39:14.094Z,22.80
2022-09-12T17:41:43.224Z,22.60
2022-09-12T17:44:13.791Z,22.50
2022-09-12T17:46:42.122Z,22.40
2022-09-12T17:49:13.830Z,22.20
2022-09-12T17:51:41.878Z,22.10
2022-09-12T17:54:12.814Z,21.90
2022-09-12T17:56:42.287Z,21.90
2022-09-12T17:59:14.900Z,21.80
2022-09-12T18:01:56.888Z,21.70
2022-09-12T18:04:24.695Z,21.60
2022-09-12T18:06:52.747Z,21.50
2022-09-12T18:09:23.256Z,21.40
2022-09-12T18:11:51.590Z,21.30
2022-09-12T18:14:21.360Z,21.10
2022-09-12T18:16:49.250Z,20.80
2022-09-12T18:19:17.815Z,20.60
2022-09-12T18:21:45.693Z,20.60
2022-09-12T18:24:13.702Z,20.50
2022-09-12T18:26:43.451Z,20.40
2022-09-12T18:29:11.579Z,20.30
2022-09-12T18:31:40.758Z,20.20
2022-09-12T18:34:12.613Z,20.20
2022-09-12T18:36:40.923Z,20.10
2022-09-12T18:39:10.012Z,20.10
2022-09-12T18:41:38.116Z,20.00
2022-09-12T18:44:07.731Z,19.90
2022-09-12T18:46:36.174Z,19.80
2022-09-12T18:49:05.908Z,19.60
2022-09-12T18:51:35.930Z,19.60
2022-09-12T18:54:06.087Z,19.40
2022-09-12T18:56:35.799Z,19.30
2022-09-12T18:59:05.310Z,19.30
2022-09-12T19:01:34.643Z,19.30
2022-09-12T19:04:05.542Z,19.30
2022-09-12T19:06:37.561Z,19.30
2022-09-12T19:09:08.236Z,19.30
2022-09-12T19:11:38.071Z,19.20
2022-09-12T19:14:07.408Z,19.20
2022-09-12T19:16:36.183Z,19.20
2022-09-12T19:19:04.658Z,19.10
2022-09-12T19:21:35.157Z,19.10
2022-09-12T19:24:05.279Z,18.80
2022-09-12T19:26:34.538Z,18.70
2022-09-12T19:29:03.390Z,18.70
2022-09-12T19:31:32.572Z,18.60
2022-09-12T19:34:01.709Z,18.60
2022-09-12T19:36:47.667Z,18.50
2022-09-12T19:39:19.452Z,18.50
2022-09-12T19:41:47.784Z,18.50
2022-09-12T19:44:15.578Z,18.40
2022-09-12T19:46:43.583Z,18.40
2022-09-12T19:49:12.595Z,18.30
2022-09-12T19:51:40.580Z,18.30
2022-09-12T19:54:08.459Z,18.30
2022-09-12T19:56:37.639Z,18.30
2022-09-12T19:59:05.431Z,18.30
2022-09-12T20:01:34.609Z,18.20
2022-09-12T20:04:03.071Z,18.20
2022-09-12T20:06:30.858Z,18.10
2022-09-12T20:08:58.881Z,18.00
2022-09-12T20:11:28.612Z,18.00
2022-09-12T20:13:58.066Z,18.00
2022-09-12T20:16:29.350Z,17.80
2022-09-12T20:19:00.815Z,17.80
2022-09-12T20:21:32.744Z,17.60
2022-09-12T20:24:02.366Z,17.60
2022-09-12T20:26:30.551Z,17.40
2022-09-12T20:28:59.825Z,17.40
2022-09-12T20:31:27.620Z,17.30
2022-09-12T20:33:57.826Z,17.30
2022-09-12T20:36:26.047Z,17.20
2022-09-12T20:38:56.571Z,17.20
2022-09-12T20:41:27.810Z,17.20
2022-09-12T20:43:57.073Z,17.20
2022-09-12T20:46:28.942Z,17.10
2022-09-12T20:48:58.250Z,17.00
2022-09-12T20:51:27.347Z,17.00
2022-09-12T20:53:56.028Z,17.00
2022-09-12T20:56:26.496Z,17.00
2022-09-12T20:58:58.634Z,17.00
2022-09-12T21:01:29.084Z,16.80
2022-09-12T21:03:56.823Z,16.70
2022-09-12T21:06:24.659Z,16.70
2022-09-12T21:08:52.616Z,16.70
2022-09-12T21:11:21.121Z,16.70
2022-09-12T21:13:48.954Z,16.70
2022-09-12T21:16:18.441Z,16.70
2022-09-12T21:18:48.471Z,16.70
2022-09-12T21:21:16.816Z,16.60
2022-09-12T21:23:45.830Z,16.60
2022-09-12T21:26:13.799Z,16.50
2022-09-12T21:28:41.505Z,16.40
2022-09-12T21:31:09.483Z,16.40
2022-09-12T21:33:37.528Z,16.40
2022-09-12T21:36:07.788Z,16.40
2022-09-12T21:38:36.020Z,16.30
2022-09-12T21:41:05.380Z,16.20
2022-09-12T21:43:33.100Z,16.20
2022-09-12T21:46:01.826Z,16.20
2022-09-12T21:48:30.113Z,16.20
2022-09-12T21:50:58.647Z,16.20
2022-09-12T21:53:27.905Z,16.10
2022-09-12T21:55:55.723Z,16.10
2022-09-12T21:58:23.401Z,15.90
2022-09-12T22:00:51.813Z,15.80
2022-09-12T22:03:19.615Z,15.80
2022-09-12T22:05:52.016Z,15.80
2022-09-12T22:08:19.708Z,15.60
2022-09-12T22:10:48.763Z,15.50
2022-09-12T22:13:16.435Z,15.60
2022-09-12T22:15:45.125Z,15.50
2022-09-12T22:18:12.843Z,15.60
2022-09-12T22:20:40.614Z,15.50
2022-09-12T22:23:24.848Z,15.50
2022-09-12T22:25:56.553Z,15.50
2022-09-12T22:28:25.046Z,15.60
2022-09-12T22:30:54.166Z,15.70
2022-09-12T22:33:22.038Z,15.60
2022-09-12T22:35:49.756Z,15.60
2022-09-12T22:38:17.479Z,15.60
2022-09-12T22:40:45.122Z,15.60
2022-09-12T22:43:14.296Z,15.60
2022-09-12T22:45:42.770Z,15.60
2022-09-12T22:48:10.570Z,15.70
2022-09-12T22:50:38.372Z,15.80
2022-09-12T22:53:06.076Z,15.70
2022-09-12T22:55:33.791Z,15.70
2022-09-12T22:58:03.502Z,15.70
2022-09-12T23:00:32.531Z,15.60
2022-09-12T23:03:00.369Z,15.60
2022-09-12T23:05:28.554Z,15.60
2022-09-12T23:07:56.349Z,15.60
2022-09-12T23:10:24.363Z,15.70
2022-09-12T23:12:52.074Z,15.80
2022-09-12T23:15:19.761Z,15.80
2022-09-12T23:17:48.796Z,15.80
2022-09-12T23:20:16.602Z,15.70
2022-09-12T23:22:44.271Z,15.70
2022-09-12T23:25:11.979Z,15.70
2022-09-12T23:27:40.491Z,15.70
2022-09-12T23:30:09.315Z,15.80
2022-09-12T23:32:37.522Z,15.70
2022-09-12T23:35:06.928Z,15.80
2022-09-12T23:37:34.627Z,15.60
2022-09-12T23:40:02.653Z,15.60
2022-09-12T23:42:30.425Z,15.60
2022-09-12T23:44:58.141Z,15.60
2022-09-12T23:47:25.842Z,15.60
2022-09-12T23:49:53.539Z,15.60
2022-09-12T23:52:22.527Z,15.60
2022-09-12T23:54:50.239Z,15.60
2022-09-12T23:57:17.983Z,15.60
2022-09-12T23:59:46.747Z,15.50
